Weather observations for the past three days for
Pullman / Moscow Regional Airport
Metric (Imperial)
Date Time (pdt) Wind (kph) Vis. (km) Weather Sky Cond. Temperature (ºC) Relative Humidity Wind Chill (°C) Heat Index (°C) Pressure Precipitation (cm)
Air Dwpt 6 hour altimeter (cm) sea level (mb) 1 hr 3 hr 6 hr
Max. Min.
07 14:53 Calm 16.09 Fair CLR 19.4 7.2 45% 76.2 1015.4
07 13:53 W 13 16.09 Fair CLR 18.9 7.2 47% 76.25 1015.7
07 12:53 W 15 G 30 16.09 Fair CLR 18.3 7.2 49% 76.25 1015.7
07 11:53 W 19 16.09 Fair CLR 17.8 7.8 52% 76.25 1015.9
07 10:53 W 15 16.09 Fair CLR 17.2 7.8 17.2 7.8 54% 76.25 1015.7
07 09:53 W 22 G 33 16.09 Fair CLR 15.6 6.7 56% 76.25 1015.8
07 08:53 W 19 16.09 Fair CLR 13.9 7.8 67% 76.28 1016.0
07 07:53 W 19 G 31 16.09 Fair CLR 12.8 6.7 67% 76.25 1015.7
07 06:53 W 11 16.09 Fair CLR 11.7 6.7 72% 76.2 1015.3
07 05:53 Calm 16.09 Fair CLR 7.8 5 83% 76.15 1014.9
07 04:53 Vrbl 9 16.09 Fair CLR 9.4 5.6 16.7 9.4 77% 8 76.15 1014.4
07 03:53 SW 7 16.09 Fair CLR 10.6 5.6 71% 76.12 1013.9
07 02:53 SW 15 16.09 Fair CLR 11.7 5.6 66% 76.1 1013.8
07 01:53 W 17 G 33 16.09 Fair CLR 13.3 4.4 55% 76.05 1012.9
07 00:53 W 22 G 41 16.09 Fair CLR 14.4 4.4 51% 76.05 1012.7
06 23:53 W 20 G 41 16.09 Fair CLR 15.6 5 50% 76.05 1012.7
06 22:53 W 26 G 43 16.09 Fair CLR 16.7 5.6 21.1 16.7 48% 76 1012.0
06 21:53 W 24 G 39 16.09 Fair CLR 17.8 7.2 50% 76 1012.0
06 20:53 W 26 G 43 16.09 Fair CLR 18.9 7.8 49% 75.97 1012.0
06 19:53 SW 20 G 35 16.09 Fair CLR 20 8.3 47% 75.97 1011.8
06 18:53 W 11 16.09 Fair CLR 20 7.8 45% 75.97 1012.1
06 17:53 W 11 16.09 Fair CLR 20.6 8.3 45% 76 1012.5
06 16:53 W 20 G 35 16.09 Fair CLR 21.1 9.4 22.8 19.4 47% 76 1012.6
06 15:53 W 19 G 33 16.09 Fair CLR 22.2 8.9 43% 76.02 1012.8
06 14:53 W 17 G 31 16.09 Fair CLR 22.8 9.4 43% 76.07 1013.3
06 13:53 W 24 G 39 16.09 Fair CLR 22.8 8.9 41% 76.1 1013.7
06 12:53 W 20 G 31 16.09 Fair CLR 21.7 9.4 46% 76.12 1014.3
06 11:53 W 17 G 31 16.09 Fair CLR 21.1 8.9 46% 76.12 1014.4
06 10:53 SW 20 G 30 16.09 Fair CLR 20 8.9 20 9.4 49% 76.17 1014.7
06 09:53 SW 19 G 26 16.09 Fair CLR 18.9 7.2 47% 76.17 1014.7
06 08:53 E 19 16.09 Fair CLR 16.1 3.9 44% 76.17 1015.0
06 07:53 E 20 16.09 Fair CLR 14.4 2.2 44% 76.15 1014.6
06 06:53 E 19 16.09 Fair CLR 12.2 1.1 47% 76.15 1014.5
06 05:53 E 9 16.09 Fair CLR 10 0.6 52% 9 76.1 1013.9
06 04:53 Vrbl 7 16.09 Fair CLR 9.4 0.6 11.1 7.8 55% 9 76.1 1013.8
06 03:53 E 13 16.09 Fair CLR 11.1 0.6 49% 76.1 1013.6
06 02:53 E 7 16.09 Fair CLR 10 1.7 57% 9 76.07 1013.5
06 01:53 NE 7 16.09 Fair CLR 10 2.2 59% 9 76.07 1013.5
06 00:53 Calm 16.09 Fair CLR 7.8 3.3 73% 76.07 1013.6
05 23:53 Calm 16.09 Fair CLR 9.4 3.3 66% 76.05 1013.1
05 22:53 Calm 16.09 A Few Clouds FEW095 10.6 3.3 22.2 10 61% 76 1012.7
05 21:53 Calm 16.09 Fair CLR 11.7 3.3 57% 76 1012.5
05 20:53 Calm 16.09 Fair CLR 12.2 4.4 59% 75.97 1012.2
05 19:53 N 7 16.09 Fair CLR 17.2 1.1 34% 75.95 1011.6
05 18:53 N 15 16.09 Fair CLR 20 -0.6 25% 75.92 1011.4
05 17:53 NE 24 16.09 Fair CLR 21.7 1.7 27% 75.92 1011.4
05 16:53 NW 17 G 33 16.09 Fair CLR 21.1 4.4 22.2 19.4 34% 75.92 1011.5
05 15:53 N 19 16.09 Fair CLR 21.7 2.8 29% 75.95 1011.9
05 14:53 N 17 16.09 Fair CLR 21.7 4.4 32% 75.97 1012.1
05 13:53 NW 19 16.09 Fair CLR 21.7 5.6 35% 76 1012.3
05 12:53 NW 11 16.09 Fair CLR 21.7 6.1 36% 76 1012.2
05 11:53 Vrbl 6 16.09 Fair CLR 21.1 5.6 37% 76 1012.3
05 10:53 Calm 16.09 Fair CLR 19.4 4.4 19.4 9.4 37% 76 1012.4
05 09:53 SE 11 16.09 Fair CLR 18.3 3.9 39% 76 1012.6
05 08:53 E 17 16.09 Fair CLR 17.2 2.2 37% 75.97 1012.4
05 07:53 E 15 16.09 Fair CLR 15.6 2.8 42% 75.97 1012.0
05 06:53 E 7 16.09 Fair CLR 12.2 3.3 55% 75.92 1011.4
05 05:53 Calm 16.09 Fair CLR 10 2.2 59% 75.9 1011.1
05 04:53 NE 11 16.09 Fair CLR 10.6 2.2 13.3 8.3 56% 75.87 1010.5
05 03:53 SE 9 16.09 Fair CLR 9.4 3.3 66% 8 75.84 1010.3
05 02:53 E 9 16.09 Fair CLR 11.1 3.3 59% 75.79 1009.6
05 01:53 SE 9 16.09 Fair CLR 10.6 3.9 64% 75.79 1009.6
05 00:53 E 15 16.09 Fair CLR 12.2 4.4 59% 75.77 1009.3
04 23:53 Calm 16.09 Fair CLR 12.2 5 62% 75.77 1009.0
04 22:53 E 6 16.09 Fair CLR 13.3 4.4 23.3 10.6 55% 75.74 1008.7
04 21:53 Calm 16.09 Fair CLR 11.1 5 66% 75.72 1008.8
04 20:53 Calm 16.09 Fair CLR 12.8 6.1 64% 75.69 1008.3
04 19:53 N 11 16.09 Fair CLR 17.2 5 45% 75.64 1007.6
04 18:53 N 15 14.48 Fair CLR 20.6 5 36% 75.62 1007.3
04 17:53 NW 15 16.09 Fair CLR 22.2 6.1 35% 75.64 1007.4
04 16:53 NW 15 G 28 16.09 Fair CLR 23.3 7.8 23.3 20 37% 75.64 1007.5
04 15:53 NW 15 16.09 Fair CLR 23.3 7.2 36% 75.64 1007.9
Date Time (pdt) Wind (kph) Vis. (km) Weather Sky Cond. Air Dwpt Max. Min. Relative Humidity Wind Chill (°C) Heat Index (°C) altimeter (cm) sea level (mb) 1 hr 3 hr 6 hr
6 hour
Temperature (ºC) Pressure Precipitation (cm)